createdAt,value
2018-08-20T00:00:52.224Z,18.20
2018-08-20T00:03:20.846Z,18.20
2018-08-20T00:05:52.922Z,18.20
2018-08-20T00:08:22.234Z,18.10
2018-08-20T00:10:57.051Z,18.10
2018-08-20T00:13:26.209Z,18.00
2018-08-20T00:15:55.460Z,17.90
2018-08-20T00:18:29.221Z,17.90
2018-08-20T00:20:57.811Z,17.90
2018-08-20T00:23:26.401Z,18.00
2018-08-20T00:25:58.265Z,18.00
2018-08-20T00:28:27.601Z,17.90
2018-08-20T00:30:56.262Z,17.90
2018-08-20T00:33:24.871Z,17.90
2018-08-20T00:35:53.566Z,17.80
2018-08-20T00:38:22.186Z,17.80
2018-08-20T00:40:50.766Z,17.70
2018-08-20T00:43:19.405Z,17.70
2018-08-20T00:45:48.501Z,17.80
2018-08-20T00:48:17.201Z,17.80
2018-08-20T00:50:45.823Z,17.70
2018-08-20T00:53:14.446Z,17.70
2018-08-20T00:55:43.071Z,17.70
2018-08-20T00:58:11.693Z,17.60
2018-08-20T01:00:40.278Z,17.60
2018-08-20T01:03:08.861Z,17.50
2018-08-20T01:05:37.445Z,17.50
2018-08-20T01:08:06.077Z,17.50
2018-08-20T01:10:34.769Z,17.50
2018-08-20T01:13:03.373Z,17.40
2018-08-20T01:15:31.990Z,17.50
2018-08-20T01:18:00.643Z,17.50
2018-08-20T01:20:29.218Z,17.40
2018-08-20T01:22:57.847Z,17.40
2018-08-20T01:25:26.457Z,17.30
2018-08-20T01:27:55.062Z,17.30
2018-08-20T01:30:23.742Z,17.30
2018-08-20T01:32:56.998Z,17.30
2018-08-20T01:35:27.848Z,17.30
2018-08-20T01:37:56.670Z,17.30
2018-08-20T01:40:25.489Z,17.30
2018-08-20T01:42:54.093Z,17.30
2018-08-20T01:45:23.620Z,17.30
2018-08-20T01:47:52.213Z,17.30
2018-08-20T01:50:20.808Z,17.30
2018-08-20T01:52:49.435Z,17.30
2018-08-20T01:55:18.040Z,17.20
2018-08-20T01:57:46.673Z,17.20
2018-08-20T02:00:15.269Z,17.10
2018-08-20T02:02:48.136Z,17.10
2018-08-20T02:05:16.952Z,17.10
2018-08-20T02:07:45.565Z,17.10
2018-08-20T02:10:14.233Z,17.10
2018-08-20T02:12:42.832Z,17.00
2018-08-20T02:15:11.465Z,17.00
2018-08-20T02:17:40.117Z,17.00
2018-08-20T02:20:08.789Z,17.00
2018-08-20T02:22:37.407Z,17.00
2018-08-20T02:25:06.518Z,16.90
2018-08-20T02:27:35.136Z,16.90
2018-08-20T02:30:03.814Z,16.90
2018-08-20T02:32:32.402Z,16.90
2018-08-20T02:35:01.019Z,17.00
2018-08-20T02:37:34.810Z,16.90
2018-08-20T02:40:05.796Z,16.90
2018-08-20T02:42:34.737Z,16.90
2018-08-20T02:45:03.860Z,16.90
2018-08-20T02:47:32.450Z,16.80
2018-08-20T02:50:01.057Z,16.80
2018-08-20T02:52:29.652Z,16.80
2018-08-20T02:54:58.271Z,16.70
2018-08-20T02:57:27.021Z,16.60
2018-08-20T02:59:55.629Z,16.70
2018-08-20T03:02:24.232Z,16.60
2018-08-20T03:04:52.864Z,16.60
2018-08-20T03:07:21.488Z,16.70
2018-08-20T03:09:50.109Z,16.70
2018-08-20T03:12:18.697Z,16.70
2018-08-20T03:14:47.301Z,16.70
2018-08-20T03:17:15.927Z,16.70
2018-08-20T03:19:44.784Z,16.60
2018-08-20T03:22:13.385Z,16.60
2018-08-20T03:24:42.028Z,16.50
2018-08-20T03:27:10.661Z,16.50
2018-08-20T03:29:39.277Z,16.50
2018-08-20T03:32:07.925Z,16.50
2018-08-20T03:34:36.542Z,16.50
2018-08-20T03:37:05.546Z,16.50
2018-08-20T03:39:34.137Z,16.50
2018-08-20T03:42:02.910Z,16.50
2018-08-20T03:44:31.522Z,16.50
2018-08-20T03:47:00.125Z,16.50
2018-08-20T03:49:28.721Z,16.40
2018-08-20T03:51:57.385Z,16.50
2018-08-20T03:54:26.036Z,16.40
2018-08-20T03:56:54.677Z,16.40
2018-08-20T03:59:33.459Z,16.40
2018-08-20T04:02:03.451Z,16.40
2018-08-20T04:04:32.270Z,16.30
2018-08-20T04:07:02.117Z,16.30
2018-08-20T04:09:31.312Z,16.30
2018-08-20T04:12:00.641Z,16.30
2018-08-20T04:14:29.635Z,16.30
2018-08-20T04:16:58.843Z,16.30
2018-08-20T04:19:34.877Z,16.30
2018-08-20T04:22:03.571Z,16.20
2018-08-20T04:24:32.169Z,16.20
2018-08-20T04:27:01.014Z,16.30
2018-08-20T04:29:29.692Z,16.20
2018-08-20T04:31:58.521Z,16.30
2018-08-20T04:34:27.117Z,16.20
2018-08-20T04:36:55.722Z,16.20
2018-08-20T04:39:24.319Z,16.20
2018-08-20T04:41:52.932Z,16.20
2018-08-20T04:44:21.531Z,16.30
2018-08-20T04:46:50.197Z,16.20
2018-08-20T04:49:18.769Z,16.30
2018-08-20T04:51:47.383Z,16.30
2018-08-20T04:54:15.961Z,16.30
2018-08-20T04:56:44.582Z,16.30
2018-08-20T04:59:13.153Z,16.30
2018-08-20T05:01:41.749Z,16.40
2018-08-20T05:04:10.317Z,16.20
2018-08-20T05:06:38.922Z,16.20
2018-08-20T05:09:07.893Z,16.20
2018-08-20T05:11:36.534Z,16.20
2018-08-20T05:14:05.209Z,16.30
2018-08-20T05:16:33.805Z,16.40
2018-08-20T05:19:02.673Z,16.50
2018-08-20T05:21:31.717Z,16.50
2018-08-20T05:24:00.341Z,16.50
2018-08-20T05:26:28.953Z,16.50
2018-08-20T05:28:57.574Z,16.50
2018-08-20T05:31:26.556Z,16.50
2018-08-20T05:33:55.157Z,16.50
2018-08-20T05:36:23.738Z,16.60
2018-08-20T05:38:52.371Z,16.70
2018-08-20T05:41:21.037Z,16.80
2018-08-20T05:43:49.664Z,17.10
2018-08-20T05:46:18.321Z,17.50
2018-08-20T05:48:46.927Z,18.00
2018-08-20T05:51:15.586Z,18.50
2018-08-20T05:53:44.206Z,18.90
2018-08-20T05:56:12.827Z,19.40
2018-08-20T05:58:41.442Z,20.00
2018-08-20T06:01:10.133Z,20.70
2018-08-20T06:03:38.745Z,21.10
2018-08-20T06:06:07.836Z,21.60
2018-08-20T06:08:36.466Z,22.10
2018-08-20T06:11:05.577Z,22.50
2018-08-20T06:13:34.194Z,23.00
2018-08-20T06:16:02.777Z,23.30
2018-08-20T06:18:31.408Z,24.00
2018-08-20T06:21:00.074Z,24.60
2018-08-20T06:23:28.696Z,25.00
2018-08-20T06:25:57.338Z,25.30
2018-08-20T06:28:25.979Z,25.60
2018-08-20T06:30:54.625Z,26.00
2018-08-20T06:33:23.264Z,26.20
2018-08-20T06:35:51.928Z,26.70
2018-08-20T06:38:20.513Z,27.20
2018-08-20T06:40:49.097Z,27.70
2018-08-20T06:43:17.733Z,28.10
2018-08-20T06:45:46.315Z,28.40
2018-08-20T06:48:14.945Z,28.70
2018-08-20T06:50:43.636Z,29.20
2018-08-20T06:53:12.250Z,29.60
2018-08-20T06:55:40.842Z,30.10
2018-08-20T06:58:09.513Z,30.40
2018-08-20T07:00:38.111Z,30.80
2018-08-20T07:03:06.927Z,31.10
2018-08-20T07:05:35.527Z,31.40
2018-08-20T07:08:04.225Z,31.70
2018-08-20T07:10:37.970Z,32.00
2018-08-20T07:13:39.173Z,32.20
2018-08-20T07:16:08.871Z,32.50
2018-08-20T07:18:37.543Z,32.90
2018-08-20T07:21:06.143Z,33.20
2018-08-20T07:23:35.799Z,33.30
2018-08-20T07:26:04.405Z,33.60
2018-08-20T07:28:33.081Z,34.00
2018-08-20T07:31:01.746Z,34.30
2018-08-20T07:33:30.508Z,34.20
2018-08-20T07:35:59.343Z,34.50
2018-08-20T07:38:27.977Z,34.70
2018-08-20T07:40:56.590Z,35.00
2018-08-20T07:43:25.873Z,35.60
2018-08-20T07:45:54.494Z,35.80
2018-08-20T07:48:23.134Z,35.90
2018-08-20T07:50:51.816Z,35.80
2018-08-20T07:53:23.044Z,36.10
2018-08-20T07:55:51.826Z,36.30
2018-08-20T07:58:20.724Z,36.70
2018-08-20T08:00:49.370Z,36.40
2018-08-20T08:03:22.185Z,36.60
2018-08-20T08:05:50.833Z,36.90
2018-08-20T08:08:19.450Z,37.20
2018-08-20T08:10:48.109Z,37.20
2018-08-20T08:13:16.676Z,37.30
2018-08-20T08:15:45.353Z,37.60
2018-08-20T08:18:13.946Z,37.90
2018-08-20T08:20:42.605Z,38.10
2018-08-20T08:23:11.212Z,38.00
2018-08-20T08:25:39.875Z,38.40
2018-08-20T08:28:08.545Z,38.60
2018-08-20T08:30:37.966Z,38.70
2018-08-20T08:33:07.142Z,38.90
2018-08-20T08:35:35.737Z,38.80
2018-08-20T08:38:04.425Z,39.10
2018-08-20T08:40:33.042Z,38.90
2018-08-20T08:43:01.673Z,39.30
2018-08-20T08:45:30.873Z,39.50
2018-08-20T08:47:59.490Z,39.50
2018-08-20T08:50:28.436Z,39.40
2018-08-20T08:52:57.574Z,39.50
2018-08-20T08:55:26.636Z,39.40
2018-08-20T08:57:55.767Z,40.10
2018-08-20T09:00:25.086Z,40.10
2018-08-20T09:02:53.649Z,40.30
2018-08-20T09:05:22.294Z,40.30
2018-08-20T09:07:50.914Z,40.50
2018-08-20T09:10:19.561Z,40.80
2018-08-20T09:12:48.149Z,40.90
2018-08-20T09:15:17.622Z,40.50
2018-08-20T09:17:46.387Z,40.70
2018-08-20T09:20:16.428Z,41.00
2018-08-20T09:22:45.300Z,41.20
2018-08-20T09:25:14.919Z,41.30
2018-08-20T09:27:44.727Z,41.20
2018-08-20T09:30:19.490Z,41.40
2018-08-20T09:32:48.680Z,41.50
2018-08-20T09:35:17.454Z,41.60
2018-08-20T09:37:46.080Z,41.50
2018-08-20T09:40:15.205Z,41.70
2018-08-20T09:42:44.136Z,42.00
2018-08-20T09:45:12.817Z,41.80
2018-08-20T09:47:42.310Z,41.90
2018-08-20T09:50:12.510Z,42.60
2018-08-20T09:52:41.106Z,42.20
2018-08-20T09:55:10.137Z,42.30
2018-08-20T09:57:38.750Z,41.50
2018-08-20T10:00:20.849Z,42.00
2018-08-20T10:02:50.016Z,42.50
2018-08-20T10:05:18.993Z,42.70
2018-08-20T10:07:48.271Z,42.20
2018-08-20T10:10:16.849Z,41.90
2018-08-20T10:12:45.950Z,42.40
2018-08-20T10:15:14.886Z,42.10
2018-08-20T10:17:44.265Z,42.50
2018-08-20T10:20:14.237Z,42.30
2018-08-20T10:22:42.901Z,42.40
2018-08-20T10:25:11.557Z,42.00
2018-08-20T10:27:40.209Z,42.10
2018-08-20T10:30:10.558Z,42.10
2018-08-20T10:32:41.346Z,41.80
2018-08-20T10:35:10.874Z,41.60
2018-08-20T10:37:40.348Z,41.80
2018-08-20T10:40:10.470Z,41.40
2018-08-20T10:42:39.500Z,41.50
2018-08-20T10:45:15.252Z,41.00
2018-08-20T10:47:45.138Z,40.80
2018-08-20T10:50:16.613Z,40.00
2018-08-20T10:52:46.965Z,39.10
2018-08-20T10:55:16.913Z,39.00
2018-08-20T10:57:46.109Z,38.80
2018-08-20T11:00:15.758Z,38.60
2018-08-20T11:02:44.395Z,38.50
2018-08-20T11:05:15.421Z,38.20
2018-08-20T11:07:44.345Z,37.80
2018-08-20T11:10:13.086Z,37.40
2018-08-20T11:12:41.669Z,37.30
2018-08-20T11:15:12.440Z,37.00
2018-08-20T11:17:41.103Z,36.80
2018-08-20T11:20:13.830Z,36.40
2018-08-20T11:22:42.652Z,35.90
2018-08-20T11:25:11.865Z,35.60
2018-08-20T11:27:40.700Z,35.40
2018-08-20T11:30:10.722Z,35.00
2018-08-20T11:32:39.361Z,35.20
2018-08-20T11:35:09.601Z,34.80
2018-08-20T11:37:38.239Z,34.80
2018-08-20T11:40:07.482Z,34.80
2018-08-20T11:42:36.177Z,34.70
2018-08-20T11:45:05.082Z,34.50
2018-08-20T11:47:33.669Z,34.10
2018-08-20T11:50:02.321Z,34.00
2018-08-20T11:52:30.922Z,33.90
2018-08-20T11:54:59.513Z,33.70
2018-08-20T11:57:28.123Z,33.60
2018-08-20T11:59:59.058Z,33.60
2018-08-20T12:02:27.673Z,33.50
2018-08-20T12:04:56.260Z,33.40
2018-08-20T12:07:24.936Z,33.30
2018-08-20T12:09:53.546Z,33.20
2018-08-20T12:12:22.160Z,32.90
2018-08-20T12:14:50.745Z,32.80
2018-08-20T12:17:19.414Z,32.80
2018-08-20T12:19:47.954Z,32.70
2018-08-20T12:22:16.615Z,32.50
2018-08-20T12:24:47.223Z,32.60
2018-08-20T12:27:16.221Z,32.60
2018-08-20T12:29:45.304Z,32.60
2018-08-20T12:32:15.657Z,32.70
2018-08-20T12:34:45.039Z,32.70
2018-08-20T12:37:15.051Z,32.40
2018-08-20T12:39:45.872Z,32.50
2018-08-20T12:42:15.564Z,32.50
2018-08-20T12:44:44.483Z,32.50
2018-08-20T12:47:13.915Z,32.40
2018-08-20T12:49:42.626Z,32.30
2018-08-20T12:52:11.228Z,32.30
2018-08-20T12:54:40.402Z,32.10
2018-08-20T12:57:09.301Z,32.10
2018-08-20T12:59:38.569Z,32.10
2018-08-20T13:02:07.748Z,32.10
2018-08-20T13:04:37.222Z,32.00
2018-08-20T13:07:07.634Z,31.90
2018-08-20T13:09:36.666Z,32.00
2018-08-20T13:12:06.205Z,32.10
2018-08-20T13:14:35.144Z,32.00
2018-08-20T13:17:04.777Z,32.00
2018-08-20T13:19:33.564Z,32.00
2018-08-20T13:22:02.925Z,32.00
2018-08-20T13:24:31.679Z,31.90
2018-08-20T13:27:01.298Z,31.90
2018-08-20T13:29:30.892Z,31.90
2018-08-20T13:32:00.145Z,31.80
2018-08-20T13:34:29.590Z,31.70
2018-08-20T13:36:59.310Z,31.80
2018-08-20T13:39:28.755Z,32.00
2018-08-20T13:41:57.349Z,31.90
2018-08-20T13:44:26.887Z,32.00
2018-08-20T13:46:56.177Z,31.90
2018-08-20T13:49:25.627Z,32.00
2018-08-20T13:51:55.482Z,32.00
2018-08-20T13:54:24.277Z,32.00
2018-08-20T13:56:53.784Z,31.80
2018-08-20T13:59:22.433Z,31.80
2018-08-20T14:01:51.413Z,31.70
2018-08-20T14:04:20.674Z,31.60
2018-08-20T14:06:49.542Z,31.60
2018-08-20T14:09:19.320Z,31.50
2018-08-20T14:11:48.331Z,31.50
2018-08-20T14:14:17.036Z,31.60
2018-08-20T14:16:45.862Z,31.80
2018-08-20T14:19:14.678Z,31.80
2018-08-20T14:21:43.433Z,31.90
2018-08-20T14:24:12.334Z,31.80
2018-08-20T14:26:41.061Z,31.90
2018-08-20T14:29:09.781Z,32.00
2018-08-20T14:31:38.394Z,32.00
2018-08-20T14:34:07.054Z,32.00
2018-08-20T14:36:35.941Z,31.90
2018-08-20T14:39:06.015Z,31.70
2018-08-20T14:41:34.697Z,31.70
2018-08-20T14:44:03.375Z,31.70
2018-08-20T14:46:32.236Z,31.70
2018-08-20T14:49:01.045Z,31.80
2018-08-20T14:51:29.804Z,31.80
2018-08-20T14:53:58.489Z,31.80
2018-08-20T14:56:27.161Z,31.80
2018-08-20T14:58:55.788Z,31.80
2018-08-20T15:01:24.719Z,31.80
2018-08-20T15:03:53.520Z,31.80
2018-08-20T15:06:22.206Z,31.70
2018-08-20T15:08:50.926Z,31.80
2018-08-20T15:11:19.778Z,31.70
2018-08-20T15:13:48.807Z,31.70
2018-08-20T15:16:18.362Z,31.70
2018-08-20T15:18:47.105Z,31.70
2018-08-20T15:21:15.782Z,31.80
2018-08-20T15:23:44.545Z,31.70
2018-08-20T15:26:13.181Z,31.70
2018-08-20T15:28:41.785Z,31.70
2018-08-20T15:31:10.481Z,31.60
2018-08-20T15:33:40.055Z,31.50
2018-08-20T15:36:08.699Z,31.40
2018-08-20T15:38:37.273Z,31.40
2018-08-20T15:41:05.893Z,31.30
2018-08-20T15:43:34.497Z,31.30
2018-08-20T15:46:03.274Z,31.20
2018-08-20T15:48:31.876Z,31.30
2018-08-20T15:51:00.701Z,31.20
2018-08-20T15:53:29.313Z,31.00
2018-08-20T15:55:57.917Z,31.00
2018-08-20T15:58:26.517Z,31.00
2018-08-20T16:00:55.185Z,31.00
2018-08-20T16:03:23.826Z,31.00
2018-08-20T16:05:52.478Z,30.90
2018-08-20T16:08:21.069Z,30.80
2018-08-20T16:10:49.884Z,30.70
2018-08-20T16:13:18.800Z,30.70
2018-08-20T16:15:47.520Z,30.60
2018-08-20T16:18:16.142Z,30.50
2018-08-20T16:20:44.779Z,30.60
2018-08-20T16:23:13.401Z,30.70
2018-08-20T16:25:42.024Z,30.50
2018-08-20T16:28:10.625Z,30.40
2018-08-20T16:30:39.249Z,30.40
2018-08-20T16:33:07.953Z,30.40
2018-08-20T16:35:36.573Z,30.30
2018-08-20T16:38:05.208Z,30.20
2018-08-20T16:40:33.802Z,30.20
2018-08-20T16:43:02.417Z,30.20
2018-08-20T16:45:31.134Z,30.20
2018-08-20T16:47:59.762Z,30.10
2018-08-20T16:50:28.612Z,30.00
2018-08-20T16:52:57.297Z,30.00
2018-08-20T16:55:26.381Z,30.10
2018-08-20T16:57:55.032Z,30.00
2018-08-20T17:00:23.645Z,29.90
2018-08-20T17:02:52.253Z,29.90
2018-08-20T17:05:20.879Z,29.90
2018-08-20T17:07:49.677Z,29.90
2018-08-20T17:10:18.278Z,29.70
2018-08-20T17:12:46.953Z,29.60
2018-08-20T17:15:17.005Z,29.70
2018-08-20T17:17:45.624Z,29.50
2018-08-20T17:20:14.198Z,29.60
2018-08-20T17:22:43.245Z,29.50
2018-08-20T17:25:11.897Z,29.50
2018-08-20T17:27:42.385Z,29.30
2018-08-20T17:30:11.017Z,29.30
2018-08-20T17:32:40.003Z,29.30
2018-08-20T17:35:09.567Z,29.20
2018-08-20T17:37:38.217Z,29.20
2018-08-20T17:40:08.709Z,29.10
2018-08-20T17:42:37.395Z,29.10
2018-08-20T17:45:07.585Z,29.00
2018-08-20T17:47:39.159Z,28.90
2018-08-20T17:50:19.454Z,28.80
2018-08-20T17:52:48.081Z,28.80
2018-08-20T17:55:16.808Z,28.60
2018-08-20T17:57:45.503Z,28.60
2018-08-20T18:00:23.389Z,28.60
2018-08-20T18:02:52.006Z,28.50
2018-08-20T18:05:22.145Z,28.40
2018-08-20T18:07:50.865Z,28.40
2018-08-20T18:10:19.493Z,28.30
2018-08-20T18:12:48.139Z,28.20
2018-08-20T18:15:17.127Z,28.10
2018-08-20T18:17:46.216Z,28.00
2018-08-20T18:20:15.526Z,27.90
2018-08-20T18:22:47.854Z,27.80
2018-08-20T18:25:16.562Z,27.50
2018-08-20T18:27:45.612Z,27.40
2018-08-20T18:30:16.699Z,27.20
2018-08-20T18:32:45.793Z,27.00
2018-08-20T18:35:20.430Z,26.70
2018-08-20T18:37:51.691Z,26.50
2018-08-20T18:40:20.289Z,26.30
2018-08-20T18:42:49.519Z,26.20
2018-08-20T18:45:18.234Z,26.00
2018-08-20T18:47:46.901Z,25.90
2018-08-20T18:50:15.510Z,25.90
2018-08-20T18:52:44.142Z,25.70
2018-08-20T18:55:12.721Z,25.60
2018-08-20T18:57:41.690Z,25.50
2018-08-20T19:00:14.210Z,25.40
2018-08-20T19:02:47.777Z,25.10
2018-08-20T19:05:17.395Z,25.00
2018-08-20T19:07:46.927Z,25.00
2018-08-20T19:10:21.790Z,24.90
2018-08-20T19:12:50.409Z,24.80
2018-08-20T19:15:30.145Z,24.80
2018-08-20T19:17:58.869Z,24.70
2018-08-20T19:20:28.342Z,24.50
2018-08-20T19:22:56.949Z,24.40
2018-08-20T19:25:25.669Z,24.40
2018-08-20T19:27:54.341Z,24.30
2018-08-20T19:30:24.818Z,24.10
2018-08-20T19:32:55.252Z,23.90
2018-08-20T19:35:24.717Z,23.90
2018-08-20T19:37:53.569Z,23.80
2018-08-20T19:40:24.771Z,23.80
2018-08-20T19:42:55.568Z,23.70
2018-08-20T19:45:31.290Z,23.70
2018-08-20T19:48:03.109Z,23.60
2018-08-20T19:50:37.016Z,23.60
2018-08-20T19:53:16.974Z,23.50
2018-08-20T19:55:46.954Z,23.50
2018-08-20T19:58:21.003Z,23.30
2018-08-20T20:01:02.647Z,23.30
2018-08-20T20:03:34.939Z,23.10
2018-08-20T20:06:05.671Z,22.90
2018-08-20T20:08:39.441Z,22.90
2018-08-20T20:11:23.798Z,22.90
2018-08-20T20:13:59.224Z,22.70
2018-08-20T20:16:40.368Z,22.70
2018-08-20T20:19:11.600Z,22.70
2018-08-20T20:21:43.047Z,22.70
2018-08-20T20:24:14.851Z,22.50
2018-08-20T20:26:45.225Z,22.50
2018-08-20T20:29:18.699Z,22.50
2018-08-20T20:31:50.629Z,22.40
2018-08-20T20:34:22.128Z,22.40
2018-08-20T20:36:54.261Z,22.40
2018-08-20T20:39:28.742Z,22.40
2018-08-20T20:42:02.483Z,22.30
2018-08-20T20:44:35.510Z,22.20
2018-08-20T20:47:07.083Z,22.20
2018-08-20T20:49:37.708Z,22.10
2018-08-20T20:52:10.802Z,22.00
2018-08-20T20:54:47.673Z,21.90
2018-08-20T20:57:19.165Z,21.90
2018-08-20T20:59:51.920Z,21.90
2018-08-20T21:02:22.766Z,21.90
2018-08-20T21:04:53.387Z,21.80
2018-08-20T21:07:31.322Z,21.80
2018-08-20T21:10:07.998Z,21.70
2018-08-20T21:12:37.567Z,21.60
2018-08-20T21:15:07.570Z,21.60
2018-08-20T21:17:36.689Z,21.70
2018-08-20T21:20:06.533Z,21.50
2018-08-20T21:22:36.930Z,21.50
2018-08-20T21:25:09.263Z,21.50
2018-08-20T21:27:37.909Z,21.40
2018-08-20T21:30:06.821Z,21.40
2018-08-20T21:32:36.174Z,21.30
2018-08-20T21:35:05.601Z,21.30
2018-08-20T21:37:34.213Z,21.20
2018-08-20T21:40:02.858Z,21.20
2018-08-20T21:42:37.586Z,21.20
2018-08-20T21:45:06.307Z,21.30
2018-08-20T21:47:34.988Z,21.20
2018-08-20T21:50:03.622Z,21.20
2018-08-20T21:52:32.224Z,21.00
2018-08-20T21:55:00.802Z,21.10
2018-08-20T21:57:29.418Z,21.00
2018-08-20T22:00:12.063Z,21.00
2018-08-20T22:02:40.801Z,21.00
2018-08-20T22:05:09.388Z,21.00
2018-08-20T22:07:38.037Z,20.90
2018-08-20T22:10:06.830Z,20.90
2018-08-20T22:12:35.401Z,20.90
2018-08-20T22:15:04.444Z,20.90
2018-08-20T22:17:33.060Z,20.80
2018-08-20T22:20:01.671Z,20.70
2018-08-20T22:22:30.317Z,20.70
2018-08-20T22:25:00.103Z,20.80
2018-08-20T22:27:30.318Z,20.70
2018-08-20T22:30:02.973Z,20.70
2018-08-20T22:32:32.564Z,20.70
2018-08-20T22:35:01.201Z,20.60
2018-08-20T22:37:29.887Z,20.50
2018-08-20T22:40:03.797Z,20.50
2018-08-20T22:42:44.223Z,20.60
2018-08-20T22:45:14.709Z,20.60
2018-08-20T22:47:43.781Z,20.50
2018-08-20T22:50:12.383Z,20.50
2018-08-20T22:52:47.497Z,20.30
2018-08-20T22:55:18.143Z,20.20
2018-08-20T22:57:58.354Z,20.20
2018-08-20T23:00:27.557Z,20.30
2018-08-20T23:02:57.058Z,20.10
2018-08-20T23:05:29.712Z,20.20
2018-08-20T23:08:04.768Z,20.20
2018-08-20T23:10:33.395Z,20.30
2018-08-20T23:13:02.088Z,20.30
2018-08-20T23:15:30.870Z,20.30
2018-08-20T23:17:59.497Z,20.10
2018-08-20T23:20:30.417Z,20.10
2018-08-20T23:22:59.064Z,20.00
2018-08-20T23:25:27.643Z,20.00
2018-08-20T23:27:56.298Z,20.00
2018-08-20T23:30:24.893Z,20.00
2018-08-20T23:32:53.612Z,20.00
2018-08-20T23:35:22.193Z,20.00
2018-08-20T23:37:50.794Z,19.90
2018-08-20T23:40:19.417Z,19.90
2018-08-20T23:42:48.025Z,19.80
2018-08-20T23:45:16.640Z,19.80
2018-08-20T23:47:45.258Z,19.60
2018-08-20T23:50:13.873Z,19.70
2018-08-20T23:52:42.701Z,19.60
2018-08-20T23:55:11.283Z,19.60
2018-08-20T23:57:39.931Z,19.60
